Time;durP1;ratioP1;P1;durP2;ratioP2;P2;SDS_P1;SDS_P2;PMS_P1;PMS_P2;Temp;Humidity;BMP_temperature;BMP_pressure;BME280_temperature;BME280_humidity;BME280_pressure;Samples;Min_cycle;Max_cycle;Signal;HPM_P1;HPM_P2
2022/09/08 00:01:36;;;;;;;;;19.00;18.50;;;;;18.14;64.16;99228.56;5016090;28;8824;-85
2022/09/08 00:04:04;;;;;;;;;23.00;22.00;;;;;18.13;64.40;99226.88;5016227;28;8844;-85
2022/09/08 00:06:32;;;;;;;;;21.50;20.00;;;;;18.10;64.60;99217.31;5016093;28;8836;-84
2022/09/08 00:09:00;;;;;;;;;25.50;21.50;;;;;18.08;64.73;99216.63;5015876;28;8882;-85
2022/09/08 00:11:28;;;;;;;;;20.75;18.50;;;;;18.08;64.66;99205.84;5016493;28;8868;-85
2022/09/08 00:13:56;;;;;;;;;18.50;17.50;;;;;18.07;64.85;99198.78;5016437;28;8855;-84
2022/09/08 00:16:24;;;;;;;;;17.00;15.25;;;;;18.03;64.23;99196.66;5016655;28;8824;-84
2022/09/08 00:18:52;;;;;;;;;22.50;21.25;;;;;17.95;64.64;99197.63;5015847;28;8839;-85
2022/09/08 00:21:20;;;;;;;;;25.50;22.50;;;;;17.90;65.27;99197.34;5015726;28;8819;-84
2022/09/08 00:23:48;;;;;;;;;20.75;19.00;;;;;17.89;64.36;99186.72;5016093;28;8861;-84
2022/09/08 00:26:15;;;;;;;;;24.00;22.50;;;;;17.88;65.13;99185.91;5015959;28;8840;-84
2022/09/08 00:28:43;;;;;;;;;21.00;18.50;;;;;17.88;64.52;99180.53;5016325;28;8852;-84
2022/09/08 00:31:11;;;;;;;;;22.75;21.50;;;;;17.89;64.58;99178.66;5015901;28;8862;-84
2022/09/08 00:33:39;;;;;;;;;15.00;14.00;;;;;17.88;64.72;99164.34;5015958;28;8949;-84
2022/09/08 00:36:10;;;;;;;;;18.00;16.00;;;;;17.88;64.66;99164.34;5016264;28;8848;-84
2022/09/08 00:38:38;;;;;;;;;23.50;21.75;;;;;17.89;64.79;99160.63;5015865;28;8816;-84
2022/09/08 00:41:09;;;;;;;;;18.50;18.25;;;;;17.91;64.40;99163.97;5015494;28;8820;-85
2022/09/08 00:43:36;;;;;;;;;19.00;18.20;;;;;17.93;64.78;99161.09;5015669;28;8874;-84
2022/09/08 00:46:04;;;;;;;;;20.00;18.75;;;;;17.95;64.72;99154.50;5015894;28;8898;-84
2022/09/08 00:48:32;;;;;;;;;21.75;18.25;;;;;17.98;64.88;99150.59;5015860;28;8847;-84
2022/09/08 00:51:00;;;;;;;;;19.50;18.75;;;;;18.00;64.68;99146.69;5015818;28;8866;-84
2022/09/08 00:53:28;;;;;;;;;12.25;11.00;;;;;18.02;64.23;99146.50;5015715;28;8840;-84
2022/09/08 00:55:55;;;;;;;;;22.25;20.50;;;;;18.07;64.04;99152.16;5015316;28;8873;-84
2022/09/08 00:58:24;;;;;;;;;19.00;17.50;;;;;18.13;63.79;99143.34;5015919;28;8839;-84
2022/09/08 01:00:51;;;;;;;;;21.50;20.00;;;;;18.18;64.29;99141.72;5015956;28;8846;-84
2022/09/08 01:03:20;;;;;;;;;20.00;19.50;;;;;18.22;63.85;99148.41;5015921;28;8831;-84
2022/09/08 01:05:48;;;;;;;;;21.00;19.00;;;;;18.22;64.22;99145.69;5015752;28;8847;-84
2022/09/08 01:13:46;;;;;;;;;21.75;21.00;;;;;18.31;63.88;99143.78;5015366;28;8835;-84
2022/09/08 01:16:13;;;;;;;;;18.50;14.00;;;;;18.30;64.36;99137.53;5015142;28;9556;-84
2022/09/08 01:18:42;;;;;;;;;23.00;21.75;;;;;18.33;63.97;99130.94;5015227;28;8824;-84
2022/09/08 01:21:13;;;;;;;;;18.75;18.00;;;;;18.36;63.78;99139.47;5015396;28;8847;-84
2022/09/08 01:23:40;;;;;;;;;20.00;18.50;;;;;18.39;63.83;99130.16;5015183;28;8819;-84
2022/09/08 01:26:08;;;;;;;;;17.50;17.00;;;;;18.44;63.67;99116.97;5015532;28;8835;-84
2022/09/08 01:28:36;;;;;;;;;20.50;19.50;;;;;18.44;63.68;99119.66;5015421;28;8905;-84
2022/09/08 01:31:03;;;;;;;;;24.00;20.75;;;;;18.42;64.17;99114.44;5015217;28;8962;-84
2022/09/08 01:33:31;;;;;;;;;18.75;18.00;;;;;18.42;63.64;99111.75;5015073;28;8848;-85
2022/09/08 01:35:59;;;;;;;;;19.25;19.25;;;;;18.45;64.15;99111.34;5015330;28;8959;-85
2022/09/08 01:38:27;;;;;;;;;20.50;17.25;;;;;18.45;63.93;99116.75;5015200;28;8835;-84
2022/09/08 01:40:55;;;;;;;;;21.75;17.75;;;;;18.45;63.99;99119.44;5014938;28;8851;-84
2022/09/08 01:43:23;;;;;;;;;18.50;18.00;;;;;18.41;63.74;99118.19;5015359;28;9598;-84
2022/09/08 01:45:50;;;;;;;;;23.75;21.75;;;;;18.38;64.15;99109.63;5032917;28;8813;-84
2022/09/08 01:48:18;;;;;;;;;25.00;21.50;;;;;18.37;64.52;99121.44;5018167;28;8851;-85
2022/09/08 01:50:46;;;;;;;;;26.00;24.00;;;;;18.35;64.22;99120.78;5015131;28;8950;-85
2022/09/08 01:53:14;;;;;;;;;19.25;19.00;;;;;18.32;64.54;99122.03;5014661;28;8843;-85
2022/09/08 01:55:41;;;;;;;;;25.25;20.75;;;;;18.34;64.59;99128.06;5014411;28;8844;-84
2022/09/08 01:58:09;;;;;;;;;21.00;18.75;;;;;18.36;64.13;99133.25;5014537;28;8816;-85
2022/09/08 02:00:37;;;;;;;;;21.25;18.50;;;;;18.36;64.25;99128.69;5014307;28;8843;-85
2022/09/08 02:03:05;;;;;;;;;25.00;21.75;;;;;18.38;63.83;99131.19;5014179;28;8839;-85
2022/09/08 02:05:32;;;;;;;;;18.75;18.25;;;;;18.41;64.44;99126.25;5014321;28;8930;-84
2022/09/08 02:08:00;;;;;;;;;18.75;17.75;;;;;18.46;64.41;99123.00;5014175;28;8824;-85
2022/09/08 02:10:28;;;;;;;;;14.75;11.25;;;;;18.55;63.45;99119.13;5014496;28;8828;-85
2022/09/08 02:12:56;;;;;;;;;21.00;18.75;;;;;18.58;64.16;99119.59;5014163;28;8854;-85
2022/09/08 02:15:24;;;;;;;;;20.50;17.75;;;;;18.58;63.74;99113.38;5014455;28;8962;-84
2022/09/08 02:17:52;;;;;;;;;21.50;20.75;;;;;18.55;64.11;99101.09;5014000;28;8924;-85
2022/09/08 02:20:20;;;;;;;;;17.25;16.00;;;;;18.48;64.43;99094.81;5014013;28;8831;-84
2022/09/08 02:22:48;;;;;;;;;18.75;17.50;;;;;18.44;64.49;99080.03;5013936;28;8827;-85
2022/09/08 02:25:16;;;;;;;;;16.25;16.00;;;;;18.39;64.42;99078.94;5013953;28;8867;-84
2022/09/08 02:27:44;;;;;;;;;16.00;15.00;;;;;18.37;64.87;99073.72;5013744;28;8824;-84
2022/09/08 02:30:11;;;;;;;;;16.00;15.50;;;;;18.36;64.25;99076.66;5013723;28;8819;-85
2022/09/08 02:32:40;;;;;;;;;16.50;16.00;;;;;18.36;64.42;99077.47;5014144;28;8862;-84
2022/09/08 02:35:08;;;;;;;;;18.25;15.00;;;;;18.34;64.63;99082.22;5013660;28;8854;-85
2022/09/08 02:37:35;;;;;;;;;19.00;19.00;;;;;18.36;64.04;99092.81;5013934;28;8847;-84
2022/09/08 02:40:03;;;;;;;;;15.25;14.25;;;;;18.34;64.20;99090.31;5013884;28;8838;-85
2022/09/08 02:42:31;;;;;;;;;18.00;16.00;;;;;18.37;64.39;99089.09;5013115;28;8828;-85
2022/09/08 02:44:59;;;;;;;;;16.00;15.20;;;;;18.40;64.52;99092.25;5013529;28;8840;-84
2022/09/08 02:47:27;;;;;;;;;16.50;15.50;;;;;18.43;64.58;99086.44;5013885;28;8843;-85
2022/09/08 02:49:54;;;;;;;;;16.80;15.40;;;;;18.48;63.90;99085.88;5013747;28;8853;-85
2022/09/08 02:52:22;;;;;;;;;13.20;13.00;;;;;18.51;64.69;99085.50;5014177;28;8851;-85
2022/09/08 02:54:50;;;;;;;;;18.80;17.20;;;;;18.50;64.32;99084.66;5013306;28;8832;-85
2022/09/08 02:57:20;;;;;;;;;13.20;13.20;;;;;18.50;64.19;99081.97;5013621;28;8832;-85
2022/09/08 02:59:48;;;;;;;;;14.25;13.00;;;;;18.53;63.93;99086.94;5014152;28;8855;-85
2022/09/08 03:02:16;;;;;;;;;9.50;8.00;;;;;18.55;64.36;99090.31;5013535;28;8912;-85
2022/09/08 03:04:44;;;;;;;;;18.40;15.40;;;;;18.56;64.70;99088.44;5013775;28;8844;-84
2022/09/08 03:07:12;;;;;;;;;15.00;13.75;;;;;18.53;64.38;99089.66;5013235;28;8832;-84
2022/09/08 03:09:40;;;;;;;;;18.00;15.50;;;;;18.50;64.22;99092.75;5013648;28;8824;-85
2022/09/08 03:12:08;;;;;;;;;12.75;11.50;;;;;18.50;64.65;99087.34;5014277;28;8835;-84
2022/09/08 03:14:36;;;;;;;;;15.50;15.00;;;;;18.48;64.57;99083.19;5013751;28;9482;-84
2022/09/08 03:17:04;;;;;;;;;12.40;12.40;;;;;18.51;64.38;99088.19;5013527;28;8835;-84
2022/09/08 03:19:32;;;;;;;;;13.40;11.40;;;;;18.53;64.59;99078.03;5013329;28;8816;-85
2022/09/08 03:22:00;;;;;;;;;11.40;11.00;;;;;18.58;64.29;99086.41;5013563;28;8843;-84
2022/09/08 03:24:28;;;;;;;;;12.80;10.80;;;;;18.63;64.36;99074.00;5013548;28;8836;-84
2022/09/08 03:26:55;;;;;;;;;9.20;9.20;;;;;18.70;64.42;99076.75;5013476;28;9072;-84
2022/09/08 03:29:23;;;;;;;;;7.40;6.00;;;;;18.75;63.88;99083.22;5013383;28;8828;-84
2022/09/08 03:31:51;;;;;;;;;9.00;8.40;;;;;18.82;63.85;99083.28;5013514;28;8932;-84
2022/09/08 03:34:19;;;;;;;;;12.20;12.00;;;;;18.85;63.54;99072.94;5013130;28;8828;-84
2022/09/08 03:36:47;;;;;;;;;12.60;12.60;;;;;18.89;63.67;99068.81;5013435;28;8904;-84
2022/09/08 03:39:14;;;;;;;;;13.40;12.60;;;;;18.91;63.65;99064.03;5013462;28;8921;-84
2022/09/08 03:41:42;;;;;;;;;18.60;18.40;;;;;18.94;63.34;99068.22;5013564;28;8840;-85
2022/09/08 03:44:10;;;;;;;;;15.00;14.80;;;;;18.92;63.93;99068.44;5013060;28;8859;-85
2022/09/08 03:46:38;;;;;;;;;10.80;10.80;;;;;18.93;63.99;99062.00;5028297;28;8871;-85
2022/09/08 03:49:06;;;;;;;;;19.20;18.20;;;;;18.92;64.10;99062.19;5028667;28;8832;-85
2022/09/08 03:51:34;;;;;;;;;14.40;13.00;;;;;18.90;63.97;99059.69;5015895;28;8956;-85
2022/09/08 03:56:43;;;;;;;;;15.80;14.00;;;;;18.87;64.19;99054.69;5016568;28;9520;-85
2022/09/08 03:59:10;;;;;;;;;15.00;13.00;;;;;18.86;63.71;99047.63;5016697;28;8832;-85
2022/09/08 04:01:38;;;;;;;;;15.60;14.00;;;;;18.86;63.77;99047.63;5016129;28;8857;-85
2022/09/08 04:04:06;;;;;;;;;12.00;12.00;;;;;18.85;63.95;99053.22;5016104;28;9545;-85
2022/09/08 04:06:34;;;;;;;;;15.00;14.80;;;;;18.85;64.05;99053.22;5016119;28;8854;-85
2022/09/08 04:09:02;;;;;;;;;12.00;12.00;;;;;18.83;64.09;99052.56;5016220;28;8836;-85
2022/09/08 04:11:29;;;;;;;;;15.00;13.80;;;;;18.81;64.08;99046.56;5016238;28;8836;-85
2022/09/08 04:13:57;;;;;;;;;17.00;16.00;;;;;18.79;64.11;99057.53;5015912;28;8823;-85
2022/09/08 04:16:25;;;;;;;;;18.40;17.40;;;;;18.73;64.77;99063.69;5016120;28;8828;-85
2022/09/08 04:18:53;;;;;;;;;13.00;11.00;;;;;18.66;64.43;99068.19;5016281;28;8824;-85
2022/09/08 04:21:20;;;;;;;;;12.60;12.40;;;;;18.61;64.98;99076.03;5015939;28;8823;-85
2022/09/08 04:23:48;;;;;;;;;15.60;13.00;;;;;18.59;65.29;99088.06;5015812;28;8843;-85
2022/09/08 04:26:16;;;;;;;;;11.40;11.40;;;;;18.49;66.02;99093.78;5015783;28;8847;-85
2022/09/08 04:28:44;;;;;;;;;14.60;13.00;;;;;18.32;66.66;99100.47;5015704;28;8796;-85
2022/09/08 04:31:12;;;;;;;;;8.80;8.80;;;;;18.16;67.31;99106.06;5015947;28;8825;-86
2022/09/08 04:33:40;;;;;;;;;5.80;5.80;;;;;17.99;67.71;99106.47;5015875;28;8858;-85
2022/09/08 04:36:07;;;;;;;;;9.60;9.60;;;;;17.83;68.14;99107.50;5015613;28;8852;-85
2022/09/08 04:38:52;;;;;;;;;7.00;6.80;;;;;17.74;68.29;99102.41;5015794;28;8946;-85
2022/09/08 04:41:20;;;;;;;;;9.50;9.00;;;;;17.68;68.69;99111.25;5015384;28;8835;-85
2022/09/08 04:43:48;;;;;;;;;6.00;5.25;;;;;17.60;68.86;99101.41;5016072;28;8847;-85
2022/09/08 04:46:16;;;;;;;;;3.75;3.75;;;;;17.55;69.45;99100.31;5015376;28;8820;-85
2022/09/08 04:48:43;;;;;;;;;4.00;4.00;;;;;17.50;69.43;99108.09;5015954;28;8828;-85
2022/09/08 04:51:12;;;;;;;;;3.80;2.80;;;;;17.47;69.62;99103.09;5015558;28;8830;-86
2022/09/08 04:53:40;;;;;;;;;4.00;4.00;;;;;17.43;69.57;99099.94;5015355;28;8861;-85
2022/09/08 04:56:07;;;;;;;;;6.00;6.00;;;;;17.40;70.77;99094.91;5015886;28;8883;-85
2022/09/08 04:58:35;;;;;;;;;4.00;4.00;;;;;17.36;71.31;99098.13;5015159;28;8868;-85
2022/09/08 05:01:02;;;;;;;;;4.40;4.40;;;;;17.32;70.78;99096.84;5015309;28;8827;-85
2022/09/08 05:03:31;;;;;;;;;3.00;3.00;;;;;17.29;71.19;99089.13;5015250;28;8854;-84
2022/09/08 05:05:58;;;;;;;;;5.20;5.20;;;;;17.24;71.27;99084.28;5014742;28;8844;-86
2022/09/08 05:08:26;;;;;;;;;4.50;4.00;;;;;17.23;71.76;99093.38;5015393;28;8831;-86
2022/09/08 05:10:54;;;;;;;;;1.00;1.00;;;;;17.23;71.35;99087.19;5015223;28;8863;-85
2022/09/08 05:13:21;;;;;;;;;3.00;3.00;;;;;17.20;71.88;99087.53;5015419;28;8828;-85
2022/09/08 05:15:49;;;;;;;;;3.40;3.00;;;;;17.19;72.03;99085.88;5015267;28;9520;-86
2022/09/08 05:18:17;;;;;;;;;6.80;6.80;;;;;17.19;71.79;99077.81;5014615;28;8844;-85
2022/09/08 05:20:45;;;;;;;;;4.00;4.00;;;;;17.20;71.31;99079.47;5014888;28;8820;-85
2022/09/08 05:23:12;;;;;;;;;2.20;0.80;;;;;17.18;71.92;99076.97;5015000;28;9513;-85
2022/09/08 05:25:40;;;;;;;;;6.20;4.40;;;;;17.18;71.84;99076.97;5015230;28;8844;-85
2022/09/08 05:28:08;;;;;;;;;3.00;3.00;;;;;17.17;71.94;99077.97;5015049;28;8885;-85
2022/09/08 05:30:35;;;;;;;;;2.20;1.80;;;;;17.17;72.34;99077.97;5015421;28;9529;-85
2022/09/08 05:33:03;;;;;;;;;4.00;4.00;;;;;17.15;72.05;99074.63;5014738;28;8859;-85
2022/09/08 05:35:31;;;;;;;;;4.00;3.00;;;;;17.14;72.91;99072.13;5015071;28;8827;-85
2022/09/08 05:37:58;;;;;;;;;4.80;4.00;;;;;17.12;72.43;99072.34;5014858;28;8812;-84
2022/09/08 05:40:26;;;;;;;;;4.00;4.00;;;;;17.11;72.80;99077.88;5015069;28;8855;-84
2022/09/08 05:42:54;;;;;;;;;3.40;3.00;;;;;17.11;73.40;99072.50;5014985;28;9466;-85
2022/09/08 05:45:22;;;;;;;;;3.60;3.20;;;;;17.11;73.49;99070.66;5014978;28;9527;-85
2022/09/08 05:47:49;;;;;;;;;4.40;4.00;;;;;17.10;73.17;99074.34;5014541;28;8816;-84
2022/09/08 05:50:18;;;;;;;;;5.60;4.00;;;;;17.11;73.53;99073.34;5013688;28;8831;-84
2022/09/08 05:52:45;;;;;;;;;3.40;3.40;;;;;17.10;73.61;99068.97;5014651;28;8832;-84
2022/09/08 05:55:13;;;;;;;;;1.00;1.00;;;;;17.12;73.59;99075.03;5014457;28;8853;-84
2022/09/08 05:57:41;;;;;;;;;3.00;3.00;;;;;17.13;72.82;99071.31;5014324;28;8840;-84
2022/09/08 06:00:08;;;;;;;;;5.20;5.20;;;;;17.15;73.60;99063.88;5014910;28;8871;-84
2022/09/08 06:02:37;;;;;;;;;4.00;3.20;;;;;17.16;73.32;99065.53;5014474;28;8820;-84
2022/09/08 06:05:04;;;;;;;;;6.00;6.00;;;;;17.17;73.81;99077.97;5014064;28;8954;-84
2022/09/08 06:07:32;;;;;;;;;4.80;4.80;;;;;17.17;73.78;99077.16;5014087;28;8843;-84
2022/09/08 06:10:00;;;;;;;;;8.50;6.75;;;;;17.17;73.82;99075.28;5014162;28;8847;-84
2022/09/08 06:12:28;;;;;;;;;3.00;2.20;;;;;17.15;73.68;99080.03;5013651;28;8828;-84
2022/09/08 06:14:56;;;;;;;;;3.60;3.40;;;;;17.17;73.57;99069.91;5014394;28;8820;-84
2022/09/08 06:17:23;;;;;;;;;5.60;5.60;;;;;17.18;73.25;99074.28;5012436;28;8836;-84
2022/09/08 06:19:52;;;;;;;;;4.80;4.00;;;;;17.19;73.41;99075.09;5013628;28;8831;-84
2022/09/08 06:22:20;;;;;;;;;3.40;3.40;;;;;17.19;73.71;99075.97;5014582;28;8816;-83
2022/09/08 06:24:47;;;;;;;;;3.00;3.00;;;;;17.18;73.35;99078.81;5014206;28;8864;-83
2022/09/08 06:27:15;;;;;;;;;1.00;1.00;;;;;17.17;73.13;99080.66;5013741;28;8856;-84
2022/09/08 06:29:43;;;;;;;;;6.00;6.00;;;;;17.16;73.83;99081.69;5013815;28;8932;-83
2022/09/08 06:32:10;;;;;;;;;3.00;1.00;;;;;17.14;74.19;99078.34;5014294;28;8966;-84
2022/09/08 06:34:38;;;;;;;;;3.00;3.00;;;;;17.13;74.45;99073.16;5014099;28;8874;-84
2022/09/08 06:37:07;;;;;;;;;3.00;3.00;;;;;17.13;74.47;99075.84;5013498;28;8828;-84
2022/09/08 06:39:35;;;;;;;;;4.00;4.00;;;;;17.14;73.98;99077.50;5013923;28;8848;-84
2022/09/08 06:42:02;;;;;;;;;5.20;4.00;;;;;17.14;74.12;99082.88;5013322;28;8824;-84
2022/09/08 06:44:31;;;;;;;;;5.60;5.20;;;;;17.16;74.21;99087.06;5013826;28;8840;-84
2022/09/08 06:46:58;;;;;;;;;2.60;2.60;;;;;17.15;74.53;99090.78;5013372;28;8871;-84
2022/09/08 06:49:27;;;;;;;;;4.80;4.80;;;;;17.17;74.13;99082.53;5013619;28;8831;-84
2022/09/08 06:51:59;;;;;;;;;4.00;4.00;;;;;17.17;74.72;99091.44;5013479;28;8843;-84
2022/09/08 06:54:27;;;;;;;;;4.00;4.00;;;;;17.18;74.62;99093.13;5013489;28;8848;-83
2022/09/08 06:56:55;;;;;;;;;3.00;2.60;;;;;17.19;74.79;99094.78;5013096;28;8858;-83
2022/09/08 06:59:43;;;;;;;;;4.00;4.00;;;;;17.23;74.44;99104.16;5013414;28;8846;-83
2022/09/08 07:02:11;;;;;;;;;4.00;4.00;;;;;17.27;74.36;99097.41;5013015;28;9562;-83
2022/09/08 07:04:39;;;;;;;;;4.00;4.00;;;;;17.31;74.15;99100.56;5013415;28;8858;-83
2022/09/08 07:07:11;;;;;;;;;2.60;2.60;;;;;17.33;73.66;99096.63;5013612;28;8852;-84
2022/09/08 07:09:39;;;;;;;;;3.00;3.00;;;;;17.36;73.75;99096.31;5013203;28;8871;-84
2022/09/08 07:12:07;;;;;;;;;3.20;3.20;;;;;17.38;73.37;99096.13;5013311;28;8840;-84
2022/09/08 07:14:35;;;;;;;;;4.80;3.80;;;;;17.42;73.44;99092.03;5012365;28;8832;-84
2022/09/08 07:17:02;;;;;;;;;3.60;3.00;;;;;17.45;73.48;99091.69;5013207;28;8839;-84
2022/09/08 07:19:30;;;;;;;;;3.00;3.00;;;;;17.48;73.01;99086.72;5013149;28;9497;-84
2022/09/08 07:22:08;;;;;;;;;5.40;4.80;;;;;17.53;72.94;99076.25;5013198;28;8836;-84
2022/09/08 07:24:36;;;;;;;;;4.00;3.40;;;;;17.57;72.72;99074.88;5013280;28;8902;-84
2022/09/08 07:27:04;;;;;;;;;3.00;3.00;;;;;17.62;72.62;99082.38;5013365;28;9682;-84
2022/09/08 07:29:31;;;;;;;;;1.40;1.40;;;;;17.63;72.42;99082.16;5014273;28;9457;-84
2022/09/08 07:32:00;;;;;;;;;4.60;3.40;;;;;17.65;72.86;99082.00;5016838;28;8928;-84
2022/09/08 07:34:27;;;;;;;;;4.00;3.00;;;;;17.67;72.38;99088.88;5015871;28;8924;-84
2022/09/08 07:36:55;;;;;;;;;0.00;0.00;;;;;17.70;72.73;99088.47;5016269;28;8854;-84
2022/09/08 07:39:23;;;;;;;;;3.00;3.00;;;;;17.72;72.27;99093.69;5015545;28;8828;-84
2022/09/08 07:41:51;;;;;;;;;4.00;4.00;;;;;17.74;72.57;99087.09;5016387;28;8820;-84
2022/09/08 07:44:19;;;;;;;;;7.00;6.00;;;;;17.79;72.51;99084.69;5016107;28;8859;-84
2022/09/08 07:46:47;;;;;;;;;3.80;3.80;;;;;17.84;71.81;99079.53;5016146;28;8882;-84
2022/09/08 07:49:14;;;;;;;;;6.00;4.00;;;;;17.90;72.21;99078.78;5016157;28;8844;-84
2022/09/08 07:51:42;;;;;;;;;7.40;6.00;;;;;17.97;71.90;99079.72;5015883;28;8828;-84
2022/09/08 07:54:10;;;;;;;;;4.00;4.00;;;;;18.02;71.53;99085.38;5015939;28;8932;-84
2022/09/08 07:56:38;;;;;;;;;6.80;4.40;;;;;18.06;71.41;99091.22;5015878;28;8842;-84
2022/09/08 07:59:25;;;;;;;;;3.00;3.00;;;;;18.08;71.60;99084.59;5016064;28;8848;-84
2022/09/08 08:01:54;;;;;;;;;3.80;3.80;;;;;18.13;71.38;99095.63;5015968;28;8843;-84
2022/09/08 08:04:22;;;;;;;;;4.00;4.00;;;;;18.15;71.35;99090.06;5015757;28;8880;-84
2022/09/08 08:06:50;;;;;;;;;7.00;6.00;;;;;18.15;71.32;99085.50;5016162;28;8938;-84
2022/09/08 08:09:17;;;;;;;;;7.80;7.80;;;;;18.15;71.64;99096.28;5016289;28;8851;-84
2022/09/08 08:11:45;;;;;;;;;3.20;3.20;;;;;18.15;71.32;99096.28;5016450;28;8924;-84
2022/09/08 08:14:13;;;;;;;;;4.40;4.40;;;;;18.15;71.85;99100.84;5015609;28;8969;-84
2022/09/08 08:16:41;;;;;;;;;4.00;4.00;;;;;18.10;71.97;99098.72;5015975;28;8824;-84
2022/09/08 08:19:08;;;;;;;;;4.40;3.80;;;;;18.05;72.08;99103.84;5016471;28;8824;-85
2022/09/08 08:21:36;;;;;;;;;7.00;4.00;;;;;18.00;72.88;99106.25;5016124;28;8858;-85
2022/09/08 08:24:04;;;;;;;;;5.60;5.60;;;;;17.97;72.53;99106.66;5015793;28;8839;-84
2022/09/08 08:26:32;;;;;;;;;3.20;2.20;;;;;17.99;72.84;99104.59;5015938;28;8828;-84
2022/09/08 08:29:00;;;;;;;;;5.40;3.00;;;;;17.97;72.80;99106.66;5016014;28;9450;-84
2022/09/08 08:31:27;;;;;;;;;3.60;3.00;;;;;17.98;73.04;99105.63;5015783;28;8850;-84
2022/09/08 08:33:56;;;;;;;;;3.20;3.20;;;;;17.99;72.42;99109.97;5015344;28;8824;-84
2022/09/08 08:36:27;;;;;;;;;3.20;3.20;;;;;18.05;72.53;99109.22;5015606;28;8816;-84
2022/09/08 08:38:55;;;;;;;;;6.40;5.20;;;;;18.10;72.68;99109.50;5015271;28;9485;-84
2022/09/08 08:41:22;;;;;;;;;4.00;3.00;;;;;18.14;72.14;99116.16;5014659;28;8831;-85
2022/09/08 08:43:50;;;;;;;;;3.40;3.40;;;;;18.18;71.89;99117.47;5014823;28;8871;-84
2022/09/08 08:46:18;;;;;;;;;6.00;4.40;;;;;18.18;72.03;99117.47;5013840;28;8886;-84
2022/09/08 08:48:47;;;;;;;;;3.20;3.00;;;;;18.19;72.06;99118.28;5014485;28;8827;-85
2022/09/08 08:51:15;;;;;;;;;1.80;1.80;;;;;18.16;71.91;99122.22;5014795;28;9220;-84
2022/09/08 08:53:43;;;;;;;;;3.00;3.00;;;;;18.16;72.32;99124.06;5015505;28;8824;-85
2022/09/08 08:56:27;;;;;;;;;3.40;3.00;;;;;18.15;71.94;99122.41;5014826;28;8946;-85
2022/09/08 08:58:55;;;;;;;;;4.00;4.00;;;;;18.13;72.18;99119.91;5015148;28;8827;-84
2022/09/08 09:01:23;;;;;;;;;3.00;3.00;;;;;18.13;72.84;99117.19;5014964;28;8820;-85
2022/09/08 09:03:51;;;;;;;;;3.40;3.00;;;;;18.13;72.91;99117.19;5014905;28;8854;-84
2022/09/08 09:06:19;;;;;;;;;3.00;3.00;;;;;18.11;72.29;99124.66;5015672;28;8866;-84
2022/09/08 09:08:47;;;;;;;;;4.00;4.00;;;;;18.06;72.71;99129.75;5015231;28;8840;-84
2022/09/08 09:11:14;;;;;;;;;3.40;3.00;;;;;17.96;72.64;99133.78;5014813;28;8820;-85
2022/09/08 09:13:43;;;;;;;;;3.00;2.60;;;;;17.89;73.59;99135.53;5015806;28;8834;-85
2022/09/08 09:16:11;;;;;;;;;3.60;3.00;;;;;17.81;73.24;99136.50;5015497;28;8874;-84
2022/09/08 09:18:44;;;;;;;;;3.60;3.00;;;;;17.80;73.16;99139.38;5015538;28;8873;-86
2022/09/08 09:21:12;;;;;;;;;3.00;3.00;;;;;17.80;73.50;99136.69;5014942;28;9568;-84
2022/09/08 09:23:41;;;;;;;;;3.00;3.00;;;;;17.85;73.02;99136.97;5015139;28;8863;-84
2022/09/08 09:26:09;;;;;;;;;1.00;1.00;;;;;17.86;72.90;99144.88;5014901;28;8855;-84
2022/09/08 09:28:36;;;;;;;;;1.00;1.00;;;;;17.89;72.76;99141.78;5015239;28;9478;-84
2022/09/08 09:31:04;;;;;;;;;1.00;1.00;;;;;17.92;73.40;99146.78;5014942;28;8854;-84
2022/09/08 09:33:33;;;;;;;;;1.00;1.00;;;;;17.95;72.84;99137.50;5015208;28;8832;-85
2022/09/08 09:36:01;;;;;;;;;2.00;1.80;;;;;17.96;73.20;99139.16;5015257;28;9525;-85
2022/09/08 09:38:28;;;;;;;;;3.00;3.00;;;;;18.01;72.98;99137.59;5014783;28;8932;-83
2022/09/08 09:40:56;;;;;;;;;2.60;2.60;;;;;18.07;73.00;99142.22;5013853;28;8836;-84
2022/09/08 09:43:24;;;;;;;;;3.00;3.00;;;;;18.15;72.52;99144.78;5014234;28;8836;-84
2022/09/08 09:45:52;;;;;;;;;2.60;2.60;;;;;18.24;72.22;99140.13;5014126;28;9536;-84
2022/09/08 09:48:20;;;;;;;;;1.00;1.00;;;;;18.32;71.63;99142.75;5014900;28;8878;-84
2022/09/08 09:50:48;;;;;;;;;4.00;4.00;;;;;18.36;72.02;99147.56;5014728;28;8855;-84
2022/09/08 09:53:15;;;;;;;;;3.60;3.40;;;;;18.40;71.50;99153.41;5014089;28;8850;-84
2022/09/08 09:56:00;;;;;;;;;3.00;2.60;;;;;18.43;71.30;99148.47;5014539;28;8863;-84
2022/09/08 09:58:28;;;;;;;;;2.80;1.40;;;;;18.50;71.26;99149.38;5013607;28;8839;-84
2022/09/08 10:00:56;;;;;;;;;1.00;1.00;;;;;18.52;70.88;99150.00;5014876;28;8819;-84
2022/09/08 10:03:25;;;;;;;;;2.60;2.60;;;;;18.51;71.56;99148.34;5014296;28;8843;-83
2022/09/08 10:05:53;;;;;;;;;3.00;3.00;;;;;18.51;71.96;99151.03;5014613;28;8824;-84
2022/09/08 10:08:20;;;;;;;;;1.80;1.80;;;;;18.53;71.34;99150.88;5014186;28;8840;-84
2022/09/08 10:10:48;;;;;;;;;3.00;3.00;;;;;18.60;71.43;99143.69;5013927;28;8846;-84
2022/09/08 10:13:16;;;;;;;;;4.00;3.00;;;;;18.69;71.50;99142.50;5014756;28;8828;-84
2022/09/08 10:15:44;;;;;;;;;1.00;1.00;;;;;18.80;71.22;99140.13;5013891;28;8982;-85
2022/09/08 10:18:12;;;;;;;;;3.40;3.00;;;;;18.83;71.02;99141.63;5013901;28;8824;-84
2022/09/08 10:20:40;;;;;;;;;1.80;1.00;;;;;18.79;70.98;99133.06;5013938;28;8835;-84
2022/09/08 10:23:07;;;;;;;;;3.00;2.80;;;;;18.85;71.01;99135.00;5014154;28;8851;-85
2022/09/08 10:25:35;;;;;;;;;2.00;2.00;;;;;18.97;70.53;99138.81;5012844;28;8860;-84
2022/09/08 10:28:03;;;;;;;;;1.00;1.00;;;;;19.49;69.71;99124.94;5014809;28;8843;-85
2022/09/08 10:30:30;;;;;;;;;1.20;1.00;;;;;20.26;67.88;99135.28;5012775;28;8881;-84
2022/09/08 10:32:58;;;;;;;;;0.80;0.80;;;;;20.61;66.74;99130.59;5012622;28;9360;-84
2022/09/08 10:35:26;;;;;;;;;2.00;2.00;;;;;20.87;66.26;99136.09;5012604;28;8843;-85
2022/09/08 10:37:54;;;;;;;;;4.40;3.20;;;;;20.97;66.59;99131.94;5020503;28;8858;-84
2022/09/08 10:40:21;;;;;;;;;1.80;1.80;;;;;20.88;66.45;99131.31;5018052;28;8852;-85
2022/09/08 10:42:51;;;;;;;;;2.00;2.00;;;;;20.92;67.07;99130.91;5012687;28;8836;-85
2022/09/08 10:45:19;;;;;;;;;2.00;2.00;;;;;21.06;66.93;99123.41;5011958;28;8844;-84
2022/09/08 10:47:46;;;;;;;;;4.00;4.00;;;;;21.06;66.34;99144.22;5011622;28;8972;-85
2022/09/08 10:50:14;;;;;;;;;3.60;3.60;;;;;21.12;66.20;99132.56;5011239;28;8843;-84
2022/09/08 10:52:42;;;;;;;;;2.40;2.40;;;;;21.20;66.43;99135.06;5011899;28;8854;-85
2022/09/08 10:55:10;;;;;;;;;2.00;2.00;;;;;21.58;65.83;99127.94;5013902;28;8848;-85
2022/09/08 10:57:37;;;;;;;;;2.00;2.00;;;;;22.11;64.32;99127.59;5011971;28;8862;-85
2022/09/08 11:00:06;;;;;;;;;4.20;3.20;;;;;22.55;63.37;99132.19;5011928;28;8842;-84
2022/09/08 11:02:34;;;;;;;;;4.20;2.40;;;;;22.88;63.07;99122.78;5012150;28;9041;-84
2022/09/08 11:05:03;;;;;;;;;2.00;2.00;;;;;23.51;61.20;99127.06;5018524;28;8954;-84
2022/09/08 11:07:30;;;;;;;;;4.20;2.40;;;;;24.12;59.86;99125.13;5019383;28;8881;-84
2022/09/08 11:10:00;;;;;;;;;4.00;2.00;;;;;24.28;59.51;99124.50;5018329;28;8852;-85
2022/09/08 11:12:49;;;;;;;;;2.80;1.80;;;;;24.06;60.37;99133.41;5019260;28;8848;-85
2022/09/08 11:15:17;;;;;;;;;2.00;2.00;;;;;23.53;61.52;99130.38;5018718;28;8847;-84
2022/09/08 11:17:46;;;;;;;;;2.40;2.00;;;;;23.56;62.00;99124.50;5019398;28;9504;-84
2022/09/08 11:20:14;;;;;;;;;1.60;1.00;;;;;24.17;60.06;99124.44;5018909;28;8832;-84
2022/09/08 11:22:42;;;;;;;;;2.00;2.00;;;;;24.62;59.09;99112.13;5018653;28;8831;-85
2022/09/08 11:25:10;;;;;;;;;2.00;2.00;;;;;24.50;59.11;99113.97;5018976;28;8836;-84
2022/09/08 11:27:38;;;;;;;;;2.80;2.80;;;;;24.32;59.91;99120.28;5017692;28;8851;-85
2022/09/08 11:30:05;;;;;;;;;2.00;2.00;;;;;23.81;61.30;99124.47;5019137;28;8860;-84
2022/09/08 11:32:33;;;;;;;;;3.20;3.20;;;;;23.64;62.00;99117.94;5017814;28;9532;-85
2022/09/08 11:35:00;;;;;;;;;2.80;2.40;;;;;23.52;61.89;99120.56;5017317;28;8844;-84
2022/09/08 11:37:28;;;;;;;;;3.20;3.20;;;;;23.35;62.03;99118.63;5016340;28;8871;-84
2022/09/08 11:39:56;;;;;;;;;3.40;2.00;;;;;23.12;62.64;99118.38;5023159;28;8854;-84
2022/09/08 11:42:24;;;;;;;;;3.20;3.20;;;;;23.07;62.46;99110.91;5026430;28;8862;-85
2022/09/08 11:44:52;;;;;;;;;2.40;2.40;;;;;22.75;63.06;99124.72;5020469;28;8998;-84
2022/09/08 11:47:19;;;;;;;;;2.00;2.00;;;;;22.62;63.74;99124.84;5018430;28;9545;-84
2022/09/08 11:49:47;;;;;;;;;3.20;2.40;;;;;22.56;63.67;99128.44;5018253;28;8832;-84